createdAt,value
2022-09-18T00:01:32.983Z,31.91
2022-09-18T00:04:04.469Z,31.76
2022-09-18T00:06:36.046Z,31.73
2022-09-18T00:09:06.778Z,31.74
2022-09-18T00:11:37.049Z,31.56
2022-09-18T00:14:07.296Z,31.49
2022-09-18T00:16:35.425Z,31.61
2022-09-18T00:19:05.583Z,31.36
2022-09-18T00:21:35.881Z,31.39
2022-09-18T00:24:05.074Z,31.35
2022-09-18T00:26:33.493Z,31.15
2022-09-18T00:29:01.726Z,31.20
2022-09-18T00:31:31.547Z,30.90
2022-09-18T00:34:01.188Z,30.81
2022-09-18T00:36:31.512Z,30.58
2022-09-18T00:38:59.891Z,30.97
2022-09-18T00:41:29.898Z,30.93
2022-09-18T00:44:30.769Z,29.62
2022-09-18T00:47:04.821Z,30.28
2022-09-18T00:49:33.354Z,30.65
2022-09-18T00:52:03.689Z,30.50
2022-09-18T00:54:34.427Z,30.50
2022-09-18T00:57:05.776Z,30.35
2022-09-18T00:59:35.297Z,30.40
2022-09-18T01:02:04.105Z,30.68
2022-09-18T01:04:32.320Z,30.57
2022-09-18T01:07:10.084Z,30.13
2022-09-18T01:09:44.556Z,30.23
2022-09-18T01:12:20.956Z,30.02
2022-09-18T01:14:54.153Z,29.75
2022-09-18T01:17:27.464Z,29.89
2022-09-18T01:20:27.566Z,29.72
2022-09-18T01:23:09.765Z,29.55
2022-09-18T01:25:47.942Z,29.69
2022-09-18T01:28:21.659Z,29.72
2022-09-18T01:30:52.052Z,29.81
2022-09-18T01:33:26.114Z,29.38
2022-09-18T01:35:58.391Z,29.97
2022-09-18T01:38:31.679Z,29.42
2022-09-18T01:41:02.379Z,29.66
2022-09-18T01:43:32.340Z,29.58
2022-09-18T01:46:04.575Z,29.72
2022-09-18T01:48:35.532Z,29.53
2022-09-18T01:51:07.388Z,29.41
2022-09-18T01:53:38.991Z,29.37
2022-09-18T01:56:09.733Z,29.37
2022-09-18T01:58:39.686Z,29.10
2022-09-18T02:01:13.212Z,28.76
2022-09-18T02:03:46.222Z,28.96
2022-09-18T02:06:17.831Z,28.78
2022-09-18T02:08:48.893Z,28.98
2022-09-18T02:11:18.622Z,29.25
2022-09-18T02:13:52.575Z,28.79
2022-09-18T02:16:24.679Z,28.74
2022-09-18T02:18:55.164Z,28.97
2022-09-18T02:21:27.063Z,28.91
2022-09-18T02:23:56.491Z,29.10
2022-09-18T02:26:25.152Z,29.22
2022-09-18T02:28:54.733Z,28.86
2022-09-18T02:31:23.115Z,29.32
2022-09-18T02:33:51.176Z,29.30
2022-09-18T02:36:36.343Z,28.57
2022-09-18T02:39:13.943Z,28.82
2022-09-18T02:41:47.350Z,29.03
2022-09-18T02:44:21.013Z,29.21
2022-09-18T02:46:58.321Z,29.41
2022-09-18T02:49:36.982Z,29.56
2022-09-18T02:52:07.793Z,30.14
2022-09-18T02:54:43.044Z,29.94
2022-09-18T02:57:15.350Z,30.14
2022-09-18T02:59:47.545Z,30.03
2022-09-18T03:02:15.831Z,30.45
2022-09-18T03:04:45.365Z,30.68
2022-09-18T03:07:16.297Z,30.95
2022-09-18T03:09:44.376Z,31.02
2022-09-18T03:12:13.046Z,30.79
2022-09-18T03:14:41.127Z,31.05
2022-09-18T03:17:11.081Z,31.01
2022-09-18T03:19:39.312Z,31.05
2022-09-18T03:22:07.406Z,31.11
2022-09-18T03:24:35.473Z,31.43
2022-09-18T03:27:04.038Z,31.34
2022-09-18T03:29:32.246Z,31.37
2022-09-18T03:32:00.336Z,31.44
2022-09-18T03:34:30.008Z,31.23
2022-09-18T03:36:58.158Z,31.54
2022-09-18T03:39:26.144Z,31.68
2022-09-18T03:41:54.440Z,31.91
2022-09-18T03:44:22.548Z,31.37
2022-09-18T03:46:50.987Z,31.49
2022-09-18T03:49:19.338Z,31.58
2022-09-18T03:51:48.784Z,31.37
2022-09-18T03:54:17.153Z,31.67
2022-09-18T03:56:45.769Z,31.81
2022-09-18T03:59:13.956Z,31.54
2022-09-18T04:01:42.123Z,31.28
2022-09-18T04:04:10.768Z,31.30
2022-09-18T04:06:39.192Z,31.64
2022-09-18T04:09:09.005Z,31.01
2022-09-18T04:11:37.220Z,31.28
2022-09-18T04:14:05.661Z,31.22
2022-09-18T04:16:33.823Z,31.29
2022-09-18T04:19:02.095Z,31.50
2022-09-18T04:21:30.440Z,31.55
2022-09-18T04:24:01.705Z,31.50
2022-09-18T04:26:31.319Z,31.30
2022-09-18T04:28:59.436Z,31.42
2022-09-18T04:31:27.538Z,31.41
2022-09-18T04:33:55.861Z,31.27
2022-09-18T04:36:24.501Z,31.37
2022-09-18T04:38:52.728Z,31.60
2022-09-18T04:41:20.921Z,31.36
2022-09-18T04:43:50.549Z,31.23
2022-09-18T04:46:18.628Z,31.31
2022-09-18T04:48:48.747Z,31.23
2022-09-18T04:51:16.923Z,31.85
2022-09-18T04:53:44.984Z,31.78
2022-09-18T04:56:13.196Z,31.87
2022-09-18T04:58:41.240Z,31.76
2022-09-18T05:01:10.852Z,31.26
2022-09-18T05:03:39.391Z,31.25
2022-09-18T05:06:07.611Z,31.21
2022-09-18T05:08:36.099Z,31.13
2022-09-18T05:11:05.022Z,31.06
2022-09-18T05:13:33.132Z,31.04
2022-09-18T05:16:01.184Z,30.79
2022-09-18T05:18:30.919Z,30.70
2022-09-18T05:21:02.384Z,30.61
2022-09-18T05:23:30.600Z,30.73
2022-09-18T05:25:58.634Z,30.49
2022-09-18T05:28:26.870Z,30.35
2022-09-18T05:31:00.172Z,29.80
2022-09-18T05:33:28.471Z,30.31
2022-09-18T05:35:58.897Z,29.66
2022-09-18T05:38:27.632Z,29.71
2022-09-18T05:40:55.808Z,29.98
2022-09-18T05:43:24.287Z,29.93
2022-09-18T05:45:52.464Z,29.72
2022-09-18T05:48:20.781Z,29.52
2022-09-18T05:50:51.993Z,29.40
2022-09-18T05:53:22.721Z,28.19
2022-09-18T05:55:51.047Z,27.37
2022-09-18T05:58:20.112Z,26.16
2022-09-18T06:00:51.310Z,25.17
2022-09-18T06:03:19.689Z,24.50
2022-09-18T06:05:53.652Z,24.15
2022-09-18T06:08:24.369Z,24.77
2022-09-18T06:10:54.847Z,25.14
2022-09-18T06:13:23.142Z,25.50
2022-09-18T06:15:53.018Z,26.24
2022-09-18T06:18:21.286Z,26.60
2022-09-18T06:20:54.430Z,26.50
2022-09-18T06:23:25.106Z,26.87
2022-09-18T06:25:59.141Z,26.92
2022-09-18T06:28:27.501Z,27.50
2022-09-18T06:30:55.857Z,27.78
2022-09-18T06:33:23.947Z,27.94
2022-09-18T06:35:52.335Z,27.94
2022-09-18T06:38:20.491Z,28.09
2022-09-18T06:40:51.045Z,27.71
2022-09-18T06:43:19.524Z,28.05
2022-09-18T06:45:52.900Z,27.46
2022-09-18T06:48:21.414Z,27.88
2022-09-18T06:50:53.295Z,27.17
2022-09-18T06:53:21.547Z,27.23
2022-09-18T06:55:51.614Z,26.89
2022-09-18T06:58:20.563Z,26.84
2022-09-18T07:00:48.640Z,26.78
2022-09-18T07:03:17.001Z,26.60
2022-09-18T07:05:46.153Z,26.59
2022-09-18T07:08:14.672Z,26.58
2022-09-18T07:10:42.981Z,26.78
2022-09-18T07:13:12.770Z,26.62
2022-09-18T07:15:40.738Z,26.77
2022-09-18T07:18:09.241Z,26.65
2022-09-18T07:20:37.274Z,26.76
2022-09-18T07:23:05.510Z,26.63
2022-09-18T07:25:34.763Z,26.68
2022-09-18T07:28:08.051Z,26.24
2022-09-18T07:30:38.706Z,26.36
2022-09-18T07:33:08.279Z,25.89
2022-09-18T07:35:36.805Z,26.02
2022-09-18T07:38:07.360Z,25.08
2022-09-18T07:40:35.770Z,24.25
2022-09-18T07:43:06.032Z,22.74
2022-09-18T07:45:35.136Z,21.82
2022-09-18T07:48:05.690Z,21.43
2022-09-18T07:50:34.000Z,21.84
2022-09-18T07:53:03.804Z,22.12
2022-09-18T07:55:32.816Z,22.58
2022-09-18T07:58:02.932Z,23.33
2022-09-18T08:00:34.824Z,23.77
2022-09-18T08:03:05.329Z,24.15
2022-09-18T08:05:34.249Z,24.81
2022-09-18T08:08:05.960Z,25.35
2022-09-18T08:10:35.157Z,26.18
2022-09-18T08:13:03.810Z,26.46
2022-09-18T08:15:32.224Z,26.87
2022-09-18T08:18:00.513Z,24.78
2022-09-18T08:20:30.142Z,21.98
2022-09-18T08:22:58.610Z,22.05
2022-09-18T08:25:28.234Z,21.56
2022-09-18T08:28:00.659Z,21.36
2022-09-18T08:30:30.527Z,20.77
2022-09-18T08:33:00.696Z,18.49
2022-09-18T08:35:31.350Z,17.99
2022-09-18T08:37:59.848Z,18.92
2022-09-18T08:40:39.347Z,18.77
2022-09-18T08:43:11.274Z,18.97
2022-09-18T08:45:53.002Z,19.15
2022-09-18T08:48:24.360Z,19.08
2022-09-18T08:50:56.060Z,18.19
2022-09-18T08:53:35.812Z,18.82
2022-09-18T08:56:07.870Z,19.59
2022-09-18T08:58:40.581Z,21.28
2022-09-18T09:01:11.350Z,22.89
2022-09-18T09:03:49.754Z,24.78
2022-09-18T09:06:29.568Z,26.64
2022-09-18T09:09:22.823Z,27.60
2022-09-18T09:11:55.351Z,28.24
2022-09-18T09:14:55.549Z,29.10
2022-09-18T09:17:40.017Z,28.50
2022-09-18T09:20:19.742Z,23.42
2022-09-18T09:22:52.943Z,18.23
2022-09-18T09:25:24.315Z,14.60
2022-09-18T09:27:53.751Z,11.16
2022-09-18T09:30:22.217Z,11.17
2022-09-18T09:32:53.664Z,10.11
2022-09-18T09:35:26.420Z,10.76
2022-09-18T09:37:56.236Z,11.20
2022-09-18T09:40:32.501Z,11.93
2022-09-18T09:43:03.527Z,12.42
2022-09-18T09:45:34.837Z,13.25
2022-09-18T09:48:07.815Z,13.71
2022-09-18T09:50:41.698Z,14.61
2022-09-18T09:53:13.098Z,14.47
2022-09-18T09:55:49.061Z,16.17
2022-09-18T09:58:24.348Z,17.86
2022-09-18T10:00:57.690Z,19.14
2022-09-18T10:03:36.883Z,19.10
2022-09-18T10:06:12.643Z,19.02
2022-09-18T10:08:46.731Z,19.95
2022-09-18T10:11:15.626Z,20.39
2022-09-18T10:13:47.608Z,21.13
2022-09-18T10:16:18.939Z,21.69
2022-09-18T10:18:49.546Z,21.45
2022-09-18T10:21:19.367Z,21.93
2022-09-18T10:23:52.732Z,21.17
2022-09-18T10:26:24.545Z,21.95
2022-09-18T10:28:52.653Z,22.65
2022-09-18T10:31:21.041Z,22.75
2022-09-18T10:33:51.333Z,22.58
2022-09-18T10:36:34.624Z,20.66
2022-09-18T10:39:18.463Z,17.87
2022-09-18T10:41:47.111Z,15.62
2022-09-18T10:44:23.980Z,14.43
2022-09-18T10:46:55.510Z,14.78
2022-09-18T10:49:26.831Z,14.15
2022-09-18T10:52:22.510Z,14.12
2022-09-18T10:55:12.799Z,15.13
2022-09-18T10:57:43.835Z,15.95
2022-09-18T11:00:28.266Z,15.04
2022-09-18T11:02:58.732Z,16.41
2022-09-18T11:05:31.372Z,16.42
2022-09-18T11:08:01.968Z,16.26
2022-09-18T11:10:34.133Z,16.00
2022-09-18T11:13:04.136Z,15.66
2022-09-18T11:15:34.387Z,16.77
2022-09-18T11:18:04.946Z,17.37
2022-09-18T11:20:35.242Z,16.79
2022-09-18T11:23:16.576Z,16.14
2022-09-18T11:25:47.355Z,17.16
2022-09-18T11:28:24.041Z,17.62
2022-09-18T11:30:58.466Z,17.97
2022-09-18T11:33:29.054Z,16.42
2022-09-18T11:36:02.120Z,14.77
2022-09-18T11:38:30.533Z,15.29
2022-09-18T11:41:01.767Z,15.58
2022-09-18T11:43:32.885Z,16.93
2022-09-18T11:46:06.928Z,19.59
2022-09-18T11:48:39.032Z,21.62
2022-09-18T11:51:13.404Z,22.76
2022-09-18T11:53:44.576Z,24.26
2022-09-18T11:56:16.388Z,24.57
2022-09-18T11:58:47.229Z,24.62
2022-09-18T12:01:27.921Z,24.19
2022-09-18T12:04:01.785Z,24.70
2022-09-18T12:06:36.019Z,24.67
2022-09-18T12:09:15.301Z,25.29
2022-09-18T12:11:51.624Z,25.58
2022-09-18T12:14:23.039Z,25.65
2022-09-18T12:16:59.014Z,25.08
2022-09-18T12:19:32.344Z,24.82
2022-09-18T12:22:06.460Z,24.22
2022-09-18T12:24:34.724Z,25.00
2022-09-18T12:27:14.290Z,23.95
2022-09-18T12:29:55.879Z,23.85
2022-09-18T12:32:42.154Z,24.59
2022-09-18T12:35:17.471Z,24.60
2022-09-18T12:37:56.892Z,24.10
2022-09-18T12:40:36.619Z,24.23
2022-09-18T12:43:37.354Z,24.74
2022-09-18T12:46:16.868Z,24.47
2022-09-18T12:49:03.629Z,24.57
2022-09-18T12:51:39.859Z,24.67
2022-09-18T12:54:35.289Z,24.64
2022-09-18T12:57:16.681Z,24.98
2022-09-18T12:59:54.329Z,25.28
2022-09-18T13:02:32.891Z,25.47
2022-09-18T13:05:04.667Z,27.03
2022-09-18T13:07:33.553Z,26.64
2022-09-18T13:10:07.145Z,27.47
2022-09-18T13:12:39.750Z,28.29
2022-09-18T13:15:15.197Z,28.56
2022-09-18T13:17:48.800Z,28.75
2022-09-18T13:20:24.092Z,28.79
2022-09-18T13:22:54.034Z,28.69
2022-09-18T13:25:33.058Z,28.47
2022-09-18T13:28:03.442Z,28.95
2022-09-18T13:30:33.814Z,28.85
2022-09-18T13:33:02.996Z,28.36
2022-09-18T13:35:32.549Z,28.19
2022-09-18T13:38:17.734Z,27.57
2022-09-18T13:40:48.018Z,27.40
2022-09-18T13:43:34.959Z,26.78
2022-09-18T13:46:07.313Z,26.78
2022-09-18T13:48:42.910Z,26.74
2022-09-18T13:51:12.796Z,27.13
2022-09-18T13:53:42.952Z,27.14
2022-09-18T13:56:12.559Z,27.01
2022-09-18T13:58:52.649Z,27.13
2022-09-18T14:01:55.053Z,26.93
2022-09-18T14:05:09.972Z,26.97
2022-09-18T14:08:14.389Z,26.61
2022-09-18T14:11:19.553Z,26.84
2022-09-18T14:13:51.911Z,27.05
2022-09-18T14:16:30.019Z,26.46
2022-09-18T14:19:02.606Z,26.59
2022-09-18T14:21:32.917Z,26.71
2022-09-18T14:24:43.213Z,25.65
2022-09-18T14:27:34.673Z,25.26
2022-09-18T14:30:13.196Z,26.00
2022-09-18T14:32:42.193Z,26.50
2022-09-18T14:35:25.036Z,26.00
2022-09-18T14:37:53.243Z,26.84
2022-09-18T14:40:24.871Z,26.54
2022-09-18T14:42:54.213Z,25.65
2022-09-18T14:45:28.549Z,26.82
2022-09-18T14:47:56.944Z,27.60
2022-09-18T14:50:33.960Z,27.81
2022-09-18T14:53:03.809Z,27.97
2022-09-18T14:55:36.054Z,27.87
2022-09-18T14:58:07.980Z,27.72
2022-09-18T15:00:38.265Z,27.99
2022-09-18T15:03:09.157Z,27.69
2022-09-18T15:05:38.113Z,28.16
2022-09-18T15:08:08.658Z,28.29
2022-09-18T15:10:39.826Z,28.10
2022-09-18T15:13:09.810Z,27.64
2022-09-18T15:15:40.190Z,28.63
2022-09-18T15:18:19.870Z,28.40
2022-09-18T15:20:50.763Z,28.95
2022-09-18T15:23:26.473Z,29.46
2022-09-18T15:25:57.512Z,28.86
2022-09-18T15:28:27.554Z,28.14
2022-09-18T15:30:58.282Z,29.49
2022-09-18T15:33:27.494Z,30.02
2022-09-18T15:35:56.587Z,30.16
2022-09-18T15:38:26.881Z,30.01
2022-09-18T15:40:55.937Z,30.00
2022-09-18T15:43:43.800Z,29.30
2022-09-18T15:46:13.975Z,29.76
2022-09-18T15:48:45.369Z,29.64
2022-09-18T15:51:17.298Z,29.61
2022-09-18T15:54:07.719Z,28.97
2022-09-18T15:56:37.143Z,29.33
2022-09-18T15:59:08.210Z,29.30
2022-09-18T16:01:42.252Z,29.39
2022-09-18T16:04:20.398Z,28.71
2022-09-18T16:06:55.620Z,28.86
2022-09-18T16:09:42.334Z,28.69
2022-09-18T16:12:35.919Z,28.73
2022-09-18T16:15:20.672Z,28.71
2022-09-18T16:18:03.951Z,28.78
2022-09-18T16:20:34.875Z,29.22
2022-09-18T16:23:15.404Z,28.97
2022-09-18T16:25:45.602Z,29.48
2022-09-18T16:28:24.962Z,29.21
2022-09-18T16:30:55.172Z,29.76
2022-09-18T16:33:26.029Z,29.86
2022-09-18T16:36:01.848Z,29.79
2022-09-18T16:38:30.525Z,30.41
2022-09-18T16:40:58.734Z,30.70
2022-09-18T16:43:27.338Z,30.67
2022-09-18T16:45:57.410Z,30.75
2022-09-18T16:48:26.025Z,31.26
2022-09-18T16:50:54.412Z,31.33
2022-09-18T16:53:22.482Z,31.43
2022-09-18T16:55:53.239Z,31.37
2022-09-18T16:58:22.471Z,31.52
2022-09-18T17:00:50.730Z,31.93
2022-09-18T17:03:20.376Z,31.52
2022-09-18T17:05:48.473Z,32.04
2022-09-18T17:08:16.955Z,31.97
2022-09-18T17:10:45.471Z,31.70
2022-09-18T17:13:13.925Z,31.68
2022-09-18T17:15:42.501Z,31.42
2022-09-18T17:18:11.132Z,31.83
2022-09-18T17:20:40.892Z,32.08
2022-09-18T17:23:09.604Z,32.28
2022-09-18T17:25:38.001Z,32.55
2022-09-18T17:28:06.234Z,32.47
2022-09-18T17:30:34.645Z,32.63
2022-09-18T17:33:03.213Z,32.35
2022-09-18T17:35:31.354Z,32.46
2022-09-18T17:38:01.003Z,32.19
2022-09-18T17:40:29.690Z,32.65
2022-09-18T17:42:58.093Z,32.23
2022-09-18T17:45:26.372Z,32.72
2022-09-18T17:47:54.688Z,32.78
2022-09-18T17:50:24.992Z,32.82
2022-09-18T17:52:53.398Z,32.50
2022-09-18T17:55:22.845Z,31.78
2022-09-18T17:57:52.956Z,31.97
2022-09-18T18:00:22.016Z,31.37
2022-09-18T18:02:50.432Z,31.27
2022-09-18T18:05:19.320Z,31.18
2022-09-18T18:07:47.630Z,31.47
2022-09-18T18:10:15.884Z,31.70
2022-09-18T18:12:45.497Z,31.69
2022-09-18T18:15:13.947Z,31.81
2022-09-18T18:17:43.095Z,31.82
2022-09-18T18:20:11.630Z,31.95
2022-09-18T18:22:40.090Z,31.77
2022-09-18T18:25:09.721Z,31.74
2022-09-18T18:27:37.890Z,31.84
2022-09-18T18:30:10.325Z,31.39
2022-09-18T18:32:42.901Z,31.72
2022-09-18T18:35:11.664Z,31.61
2022-09-18T18:37:39.709Z,31.59
2022-09-18T18:40:08.676Z,31.42
2022-09-18T18:42:37.006Z,31.39
2022-09-18T18:45:07.876Z,31.62
2022-09-18T18:47:36.617Z,31.81
2022-09-18T18:50:06.130Z,31.64
2022-09-18T18:52:34.359Z,31.73
2022-09-18T18:55:02.746Z,32.33
2022-09-18T18:57:31.718Z,32.47
2022-09-18T18:59:59.843Z,32.25
2022-09-18T19:02:32.230Z,32.13
2022-09-18T19:05:03.161Z,32.22
2022-09-18T19:07:32.663Z,32.35
2022-09-18T19:10:01.779Z,32.97
2022-09-18T19:12:31.325Z,32.87
2022-09-18T19:14:59.459Z,32.59
2022-09-18T19:17:29.245Z,33.16
2022-09-18T19:19:58.873Z,33.11
2022-09-18T19:22:27.169Z,33.38
2022-09-18T19:24:55.451Z,33.66
2022-09-18T19:27:23.742Z,33.61
2022-09-18T19:29:51.825Z,33.30
2022-09-18T19:32:21.181Z,33.32
2022-09-18T19:34:50.827Z,33.06
2022-09-18T19:37:19.909Z,32.97
2022-09-18T19:39:50.427Z,33.30
2022-09-18T19:42:18.817Z,33.19
2022-09-18T19:44:48.298Z,32.85
2022-09-18T19:47:22.014Z,32.41
2022-09-18T19:49:52.033Z,32.75
2022-09-18T19:52:22.504Z,32.75
2022-09-18T19:54:53.118Z,32.64
2022-09-18T19:57:23.261Z,32.84
2022-09-18T19:59:54.297Z,32.88
2022-09-18T20:02:22.793Z,31.03
2022-09-18T20:04:52.414Z,32.25
2022-09-18T20:07:20.620Z,32.76
2022-09-18T20:09:48.932Z,32.73
2022-09-18T20:12:17.107Z,32.66
2022-09-18T20:14:45.297Z,32.37
2022-09-18T20:17:13.760Z,32.69
2022-09-18T20:19:42.155Z,32.64
2022-09-18T20:22:11.870Z,32.52
2022-09-18T20:24:40.717Z,32.51
2022-09-18T20:27:08.813Z,32.69
2022-09-18T20:29:37.803Z,32.62
2022-09-18T20:32:06.151Z,32.47
2022-09-18T20:34:34.420Z,32.67
2022-09-18T20:37:03.421Z,32.90
2022-09-18T20:39:33.251Z,32.19
2022-09-18T20:42:01.578Z,32.52
2022-09-18T20:44:30.354Z,32.46
2022-09-18T20:46:58.670Z,32.10
2022-09-18T20:49:27.038Z,32.06
2022-09-18T20:51:55.623Z,32.20
2022-09-18T20:54:24.259Z,32.07
2022-09-18T20:56:54.459Z,31.87
2022-09-18T20:59:22.503Z,31.88
2022-09-18T21:01:51.080Z,31.60
2022-09-18T21:04:21.815Z,31.21
2022-09-18T21:06:56.350Z,31.16
2022-09-18T21:09:26.402Z,31.33
2022-09-18T21:11:56.824Z,31.26
2022-09-18T21:14:27.518Z,31.50
2022-09-18T21:16:56.085Z,31.59
2022-09-18T21:19:26.292Z,31.46
2022-09-18T21:21:54.842Z,31.61
2022-09-18T21:24:23.238Z,31.34
2022-09-18T21:26:51.380Z,31.24
2022-09-18T21:29:22.852Z,30.85
2022-09-18T21:31:52.272Z,31.28
2022-09-18T21:34:24.476Z,30.97
2022-09-18T21:36:56.457Z,31.09
2022-09-18T21:39:25.955Z,31.10
2022-09-18T21:41:54.053Z,31.20
2022-09-18T21:44:27.072Z,30.78
2022-09-18T21:46:56.042Z,30.95
2022-09-18T21:49:24.346Z,31.28
2022-09-18T21:51:55.215Z,30.81
2022-09-18T21:54:24.440Z,31.48
2022-09-18T21:56:52.898Z,32.14
2022-09-18T21:59:22.299Z,32.51
2022-09-18T22:01:54.896Z,32.32
2022-09-18T22:04:26.228Z,32.18
2022-09-18T22:06:55.626Z,31.15
2022-09-18T22:09:25.974Z,32.27
2022-09-18T22:11:54.494Z,32.63
2022-09-18T22:14:29.927Z,32.40
2022-09-18T22:16:59.780Z,32.41
2022-09-18T22:19:28.198Z,32.62
2022-09-18T22:21:56.441Z,32.92
2022-09-18T22:24:25.664Z,32.57
2022-09-18T22:26:56.531Z,32.46
2022-09-18T22:29:26.364Z,32.82
2022-09-18T22:31:55.176Z,32.86
2022-09-18T22:34:26.482Z,32.67
2022-09-18T22:36:55.041Z,33.07
2022-09-18T22:39:24.013Z,33.22
2022-09-18T22:41:52.528Z,33.29
2022-09-18T22:44:21.441Z,33.56
2022-09-18T22:46:52.082Z,33.29
2022-09-18T22:49:21.363Z,33.44
2022-09-18T22:51:51.586Z,33.12
2022-09-18T22:54:23.771Z,33.33
2022-09-18T22:56:52.467Z,33.96
2022-09-18T22:59:22.271Z,33.83
2022-09-18T23:01:52.243Z,33.76
2022-09-18T23:04:23.563Z,33.76
2022-09-18T23:06:53.479Z,33.79
2022-09-18T23:09:21.663Z,33.98
2022-09-18T23:11:52.013Z,34.09
2022-09-18T23:14:21.772Z,34.10
2022-09-18T23:16:50.674Z,34.34
2022-09-18T23:19:21.005Z,34.17
2022-09-18T23:21:49.271Z,34.24
2022-09-18T23:24:19.001Z,33.88
2022-09-18T23:26:49.266Z,34.23
2022-09-18T23:29:18.649Z,34.41
2022-09-18T23:31:50.492Z,34.11
2022-09-18T23:34:20.294Z,34.47
2022-09-18T23:36:49.741Z,34.19
2022-09-18T23:39:21.430Z,33.61
2022-09-18T23:41:50.119Z,33.98
2022-09-18T23:44:20.381Z,33.75
2022-09-18T23:46:48.795Z,33.84
2022-09-18T23:49:22.381Z,34.13
2022-09-18T23:51:52.684Z,33.64
2022-09-18T23:54:24.070Z,33.53
2022-09-18T23:56:52.592Z,34.00
2022-09-18T23:59:23.021Z,33.54
